createdAt,value
2018-12-20T00:02:01.502Z,4.50
2018-12-20T00:04:30.200Z,4.50
2018-12-20T00:06:59.385Z,4.50
2018-12-20T00:09:27.617Z,4.50
2018-12-20T00:11:55.819Z,4.50
2018-12-20T00:14:29.831Z,4.40
2018-12-20T00:16:59.806Z,4.20
2018-12-20T00:19:27.985Z,3.80
2018-12-20T00:21:56.244Z,4.00
2018-12-20T00:24:24.656Z,4.30
2018-12-20T00:26:52.927Z,4.40
2018-12-20T00:29:21.123Z,4.30
2018-12-20T00:31:49.279Z,4.40
2018-12-20T00:34:17.500Z,4.40
2018-12-20T00:36:45.790Z,4.30
2018-12-20T00:39:14.036Z,4.00
2018-12-20T00:41:42.289Z,3.50
2018-12-20T00:44:10.519Z,3.50
2018-12-20T00:46:38.726Z,3.60
2018-12-20T00:49:07.030Z,3.50
2018-12-20T00:51:35.377Z,3.50
2018-12-20T00:54:03.684Z,3.60
2018-12-20T00:56:31.976Z,3.40
2018-12-20T00:59:00.276Z,3.90
2018-12-20T01:01:28.715Z,4.20
2018-12-20T01:03:57.128Z,4.30
2018-12-20T01:06:25.595Z,4.10
2018-12-20T01:08:53.761Z,3.90
2018-12-20T01:11:22.097Z,4.10
2018-12-20T01:13:50.523Z,3.80
2018-12-20T01:16:18.924Z,3.70
2018-12-20T01:18:47.294Z,3.60
2018-12-20T01:21:15.738Z,3.20
2018-12-20T01:23:44.053Z,3.00
2018-12-20T01:26:12.295Z,2.70
2018-12-20T01:28:40.624Z,2.80
2018-12-20T01:31:08.983Z,3.80
2018-12-20T01:33:37.216Z,3.90
2018-12-20T01:36:05.694Z,3.40
2018-12-20T01:38:33.957Z,3.10
2018-12-20T01:41:02.305Z,3.90
2018-12-20T01:43:30.658Z,4.00
2018-12-20T01:45:59.068Z,3.90
2018-12-20T01:48:27.249Z,3.60
2018-12-20T01:50:55.411Z,3.90
2018-12-20T01:53:23.777Z,4.10
2018-12-20T01:55:52.173Z,3.90
2018-12-20T01:58:20.451Z,3.90
2018-12-20T02:00:48.721Z,4.10
2018-12-20T02:03:16.999Z,3.90
2018-12-20T02:05:45.219Z,3.60
2018-12-20T02:08:13.917Z,3.50
2018-12-20T02:10:42.284Z,3.40
2018-12-20T02:13:10.652Z,3.60
2018-12-20T02:15:38.936Z,4.10
2018-12-20T02:18:07.103Z,3.90
2018-12-20T02:20:35.373Z,4.20
2018-12-20T02:23:03.622Z,4.20
2018-12-20T02:25:31.973Z,4.20
2018-12-20T02:28:00.417Z,4.30
2018-12-20T02:30:28.763Z,4.20
2018-12-20T02:32:56.999Z,4.30
2018-12-20T02:35:25.465Z,4.40
2018-12-20T02:37:53.873Z,4.30
2018-12-20T02:40:22.249Z,4.40
2018-12-20T02:42:50.563Z,4.20
2018-12-20T02:45:18.902Z,4.30
2018-12-20T02:47:47.362Z,3.90
2018-12-20T02:50:15.690Z,3.50
2018-12-20T02:52:43.879Z,3.10
2018-12-20T02:55:12.210Z,3.00
2018-12-20T02:57:40.487Z,3.00
2018-12-20T03:08:36.508Z,3.10
2018-12-20T03:11:04.865Z,3.40
2018-12-20T03:13:33.100Z,3.10
2018-12-20T03:16:01.308Z,3.10
2018-12-20T03:18:29.594Z,3.00
2018-12-20T03:20:58.145Z,3.20
2018-12-20T03:23:26.690Z,2.90
2018-12-20T03:25:55.256Z,3.30
2018-12-20T03:28:23.597Z,3.40
2018-12-20T03:30:51.803Z,3.90
2018-12-20T03:33:20.009Z,3.90
2018-12-20T03:35:48.315Z,4.00
2018-12-20T03:38:16.485Z,4.10
2018-12-20T03:40:44.767Z,4.30
2018-12-20T03:43:13.117Z,4.20
2018-12-20T03:45:41.796Z,4.20
2018-12-20T03:48:10.108Z,4.20
2018-12-20T03:50:38.478Z,4.30
2018-12-20T03:53:06.682Z,4.30
2018-12-20T03:55:35.059Z,3.90
2018-12-20T03:58:03.717Z,3.50
2018-12-20T04:00:32.081Z,3.50
2018-12-20T04:03:00.500Z,3.30
2018-12-20T04:05:28.797Z,3.10
2018-12-20T04:07:57.092Z,3.40
2018-12-20T04:10:25.337Z,4.00
2018-12-20T04:12:54.105Z,4.00
2018-12-20T04:15:22.303Z,3.70
2018-12-20T04:17:50.596Z,4.00
2018-12-20T04:20:19.091Z,4.10
2018-12-20T04:22:47.443Z,4.00
2018-12-20T04:25:15.872Z,4.00
2018-12-20T04:27:44.252Z,3.90
2018-12-20T04:30:12.883Z,4.10
2018-12-20T04:32:41.135Z,3.90
2018-12-20T04:35:09.476Z,4.00
2018-12-20T04:37:37.704Z,3.90
2018-12-20T04:40:06.463Z,3.90
2018-12-20T04:42:34.741Z,3.80
2018-12-20T04:45:03.495Z,3.90
2018-12-20T04:47:31.924Z,4.00
2018-12-20T04:50:00.460Z,4.10
2018-12-20T04:52:28.827Z,4.20
2018-12-20T04:54:57.022Z,3.90
2018-12-20T04:57:25.320Z,4.10
2018-12-20T04:59:53.493Z,4.20
2018-12-20T05:02:22.047Z,4.20
2018-12-20T05:04:50.446Z,4.20
2018-12-20T05:09:40.865Z,4.20
2018-12-20T05:12:09.067Z,3.60
2018-12-20T05:14:37.344Z,3.90
2018-12-20T05:17:05.682Z,3.70
2018-12-20T05:19:33.960Z,3.90
2018-12-20T05:22:02.266Z,3.80
2018-12-20T05:24:30.605Z,3.90
2018-12-20T05:26:58.846Z,4.00
2018-12-20T05:29:27.271Z,3.90
2018-12-20T05:31:55.561Z,3.90
2018-12-20T05:34:23.920Z,3.90
2018-12-20T05:36:52.360Z,4.10
2018-12-20T05:39:20.770Z,4.10
2018-12-20T05:41:49.242Z,3.90
2018-12-20T05:44:17.792Z,3.90
2018-12-20T05:46:46.060Z,3.80
2018-12-20T05:55:08.611Z,3.80
2018-12-20T05:57:37.077Z,4.10
2018-12-20T06:00:08.559Z,3.90
2018-12-20T06:02:36.983Z,3.80
2018-12-20T06:05:06.428Z,3.70
2018-12-20T06:07:34.654Z,4.10
2018-12-20T06:10:02.928Z,4.10
2018-12-20T06:12:31.281Z,3.90
2018-12-20T06:14:59.528Z,3.80
2018-12-20T06:17:27.705Z,3.90
2018-12-20T06:19:56.117Z,4.00
2018-12-20T06:22:24.428Z,4.10
2018-12-20T06:24:52.701Z,3.90
2018-12-20T06:27:20.868Z,3.90
2018-12-20T06:29:49.065Z,3.90
2018-12-20T06:32:17.273Z,4.00
2018-12-20T06:34:45.475Z,3.90
2018-12-20T06:37:13.626Z,3.80
2018-12-20T06:39:41.792Z,3.80
2018-12-20T06:42:09.996Z,3.70
2018-12-20T06:44:38.192Z,3.80
2018-12-20T06:47:06.372Z,3.70
2018-12-20T06:49:34.589Z,3.60
2018-12-20T06:52:02.752Z,3.70
2018-12-20T06:54:30.975Z,3.70
2018-12-20T06:56:59.180Z,3.60
2018-12-20T06:59:27.357Z,3.70
2018-12-20T07:01:55.573Z,3.70
2018-12-20T07:04:23.808Z,4.00
2018-12-20T07:06:51.980Z,4.30
2018-12-20T07:15:14.450Z,3.90
2018-12-20T07:17:42.629Z,3.70
2018-12-20T07:20:10.949Z,3.80
2018-12-20T07:22:39.161Z,3.70
2018-12-20T07:25:07.505Z,3.80
2018-12-20T07:27:36.385Z,3.80
2018-12-20T07:30:09.648Z,3.90
2018-12-20T07:32:37.858Z,3.70
2018-12-20T07:35:07.293Z,3.70
2018-12-20T07:37:35.559Z,3.80
2018-12-20T07:40:06.243Z,3.60
2018-12-20T07:42:34.445Z,3.80
2018-12-20T07:45:02.701Z,3.70
2018-12-20T07:47:31.063Z,3.80
2018-12-20T07:49:59.233Z,3.80
2018-12-20T07:52:27.400Z,3.70
2018-12-20T07:54:55.611Z,3.50
2018-12-20T07:57:24.882Z,3.70
2018-12-20T07:59:53.271Z,3.70
2018-12-20T08:02:21.494Z,3.60
2018-12-20T08:04:49.665Z,3.80
2018-12-20T08:07:17.841Z,3.90
2018-12-20T08:09:46.065Z,3.90
2018-12-20T08:12:14.238Z,3.90
2018-12-20T08:14:42.396Z,3.80
2018-12-20T08:17:10.641Z,3.70
2018-12-20T08:19:38.816Z,3.80
2018-12-20T08:22:07.057Z,3.70
2018-12-20T08:24:35.228Z,3.50
2018-12-20T08:27:03.458Z,3.70
2018-12-20T08:29:31.634Z,3.80
2018-12-20T08:31:59.828Z,3.90
2018-12-20T08:34:28.069Z,3.60
2018-12-20T08:36:56.222Z,3.70
2018-12-20T08:45:31.903Z,3.70
2018-12-20T08:53:55.194Z,3.70
2018-12-20T08:56:23.388Z,3.50
2018-12-20T08:58:51.628Z,3.60
2018-12-20T09:01:19.819Z,3.70
2018-12-20T09:03:48.115Z,3.90
2018-12-20T09:06:16.781Z,4.10
2018-12-20T09:08:44.999Z,3.90
2018-12-20T09:11:13.248Z,3.90
2018-12-20T09:13:41.523Z,4.10
2018-12-20T09:16:09.779Z,4.20
2018-12-20T09:18:37.982Z,3.80
2018-12-20T09:21:06.346Z,3.90
2018-12-20T09:23:34.565Z,4.00
2018-12-20T09:26:03.388Z,4.10
2018-12-20T09:28:31.975Z,4.10
2018-12-20T09:31:00.187Z,4.10
2018-12-20T09:33:28.473Z,4.00
2018-12-20T09:35:56.720Z,3.90
2018-12-20T09:38:24.912Z,4.00
2018-12-20T09:40:53.694Z,3.90
2018-12-20T09:43:22.100Z,4.00
2018-12-20T09:45:50.518Z,4.00
2018-12-20T09:48:18.813Z,4.10
2018-12-20T09:50:47.310Z,4.20
2018-12-20T09:53:15.475Z,4.30
2018-12-20T09:55:43.639Z,4.30
2018-12-20T09:58:11.869Z,4.30
2018-12-20T10:00:40.193Z,4.20
2018-12-20T10:03:08.463Z,4.40
2018-12-20T10:05:36.727Z,4.30
2018-12-20T10:08:06.831Z,4.30
2018-12-20T10:10:35.114Z,4.30
2018-12-20T10:13:03.663Z,4.30
2018-12-20T10:15:32.154Z,4.20
2018-12-20T10:18:00.352Z,4.40
2018-12-20T10:20:28.829Z,4.40
2018-12-20T10:22:57.021Z,4.40
2018-12-20T10:25:25.338Z,4.40
2018-12-20T10:27:53.609Z,4.30
2018-12-20T10:30:21.873Z,4.50
2018-12-20T10:32:50.192Z,4.70
2018-12-20T10:35:18.499Z,4.50
2018-12-20T10:37:46.776Z,4.50
2018-12-20T10:40:14.962Z,4.50
2018-12-20T10:42:43.221Z,4.40
2018-12-20T10:45:11.388Z,4.40
2018-12-20T10:47:39.552Z,4.30
2018-12-20T10:50:08.806Z,4.40
2018-12-20T10:52:37.053Z,3.90
2018-12-20T10:55:05.427Z,3.50
2018-12-20T10:57:33.650Z,3.90
2018-12-20T11:00:01.981Z,4.10
2018-12-20T11:02:35.925Z,3.60
2018-12-20T11:05:06.544Z,3.40
2018-12-20T11:07:40.276Z,3.10
2018-12-20T11:13:07.190Z,3.40
2018-12-20T11:15:37.377Z,3.90
2018-12-20T11:18:06.285Z,3.50
2018-12-20T11:20:34.544Z,3.60
2018-12-20T11:23:03.535Z,3.70
2018-12-20T11:25:31.824Z,4.30
2018-12-20T11:28:00.062Z,4.40
2018-12-20T11:30:28.246Z,4.40
2018-12-20T11:32:56.533Z,4.40
2018-12-20T11:35:24.958Z,4.40
2018-12-20T11:37:53.166Z,4.40
2018-12-20T11:40:21.365Z,4.60
2018-12-20T11:42:49.638Z,4.50
2018-12-20T11:45:18.015Z,4.60
2018-12-20T11:47:46.399Z,4.70
2018-12-20T11:50:14.972Z,4.80
2018-12-20T11:52:43.176Z,4.90
2018-12-20T11:55:11.552Z,4.80
2018-12-20T11:57:39.743Z,5.00
2018-12-20T12:00:10.300Z,5.00
2018-12-20T12:02:38.608Z,5.00
2018-12-20T12:05:06.990Z,5.00
2018-12-20T12:07:35.538Z,5.10
2018-12-20T12:10:05.496Z,5.00
2018-12-20T12:12:33.860Z,5.10
2018-12-20T12:15:02.231Z,4.80
2018-12-20T12:17:30.417Z,4.40
2018-12-20T12:19:58.609Z,4.70
2018-12-20T12:22:26.833Z,4.90
2018-12-20T12:24:55.041Z,4.80
2018-12-20T12:27:23.414Z,4.70
2018-12-20T12:29:51.804Z,4.70
2018-12-20T12:32:20.080Z,5.00
2018-12-20T12:34:48.250Z,5.10
2018-12-20T12:37:16.503Z,4.70
2018-12-20T12:39:44.681Z,4.90
2018-12-20T12:42:12.959Z,5.10
2018-12-20T12:44:41.338Z,5.10
2018-12-20T12:47:09.523Z,5.10
2018-12-20T12:49:37.845Z,4.60
2018-12-20T12:52:06.037Z,5.00
2018-12-20T12:54:34.260Z,4.60
2018-12-20T12:57:02.525Z,4.90
2018-12-20T12:59:30.709Z,4.90
2018-12-20T13:01:59.162Z,4.60
2018-12-20T13:04:27.384Z,4.60
2018-12-20T13:06:55.751Z,4.80
2018-12-20T13:09:24.067Z,4.50
2018-12-20T13:11:52.291Z,4.80
2018-12-20T13:14:20.499Z,4.90
2018-12-20T13:16:48.815Z,4.90
2018-12-20T13:19:17.195Z,4.90
2018-12-20T13:21:45.466Z,5.20
2018-12-20T13:24:13.844Z,5.30
2018-12-20T13:26:42.141Z,5.30
2018-12-20T13:29:10.348Z,5.20
2018-12-20T13:31:38.608Z,5.00
2018-12-20T13:34:06.826Z,5.10
2018-12-20T13:36:35.542Z,5.20
2018-12-20T13:39:06.338Z,5.00
2018-12-20T13:41:34.596Z,5.10
2018-12-20T13:44:03.086Z,5.20
2018-12-20T13:46:31.500Z,5.20
2018-12-20T13:49:00.151Z,5.30
2018-12-20T13:51:28.363Z,5.30
2018-12-20T13:53:57.022Z,5.20
2018-12-20T13:56:25.245Z,5.20
2018-12-20T13:58:53.415Z,4.80
2018-12-20T14:01:21.682Z,5.10
2018-12-20T14:03:49.955Z,5.10
2018-12-20T14:06:18.316Z,5.20
2018-12-20T14:08:46.522Z,5.20
2018-12-20T14:11:14.996Z,5.20
2018-12-20T14:13:43.297Z,5.10
2018-12-20T14:16:11.595Z,4.90
2018-12-20T14:18:39.893Z,4.40
2018-12-20T14:21:08.088Z,4.60
2018-12-20T14:23:36.368Z,5.00
2018-12-20T14:26:04.744Z,4.80
2018-12-20T14:28:32.941Z,4.60
2018-12-20T14:31:01.366Z,4.50
2018-12-20T14:33:29.758Z,4.80
2018-12-20T14:35:58.052Z,4.90
2018-12-20T14:38:26.237Z,4.80
2018-12-20T14:40:54.608Z,4.90
2018-12-20T14:43:22.809Z,4.80
2018-12-20T14:45:51.030Z,4.80
2018-12-20T14:48:24.765Z,5.00
2018-12-20T14:50:53.112Z,4.90
2018-12-20T14:53:21.304Z,4.90
2018-12-20T14:55:49.526Z,5.00
2018-12-20T14:58:17.724Z,5.00
2018-12-20T15:00:46.123Z,4.40
2018-12-20T15:03:14.442Z,4.60
2018-12-20T15:05:42.685Z,4.80
2018-12-20T15:08:10.881Z,5.00
2018-12-20T15:10:39.193Z,4.90
2018-12-20T15:13:07.601Z,5.10
2018-12-20T15:15:35.801Z,4.90
2018-12-20T15:18:04.368Z,4.80
2018-12-20T15:20:40.233Z,5.00
2018-12-20T15:23:02.942Z,4.80
2018-12-20T15:25:31.140Z,5.00
2018-12-20T15:28:00.109Z,5.00
2018-12-20T15:30:28.318Z,5.10
2018-12-20T15:32:58.688Z,5.10
2018-12-20T15:35:27.458Z,4.40
2018-12-20T15:37:55.633Z,4.60
2018-12-20T15:40:24.044Z,4.90
2018-12-20T15:42:52.422Z,5.00
2018-12-20T15:45:20.720Z,4.90
2018-12-20T15:47:48.974Z,4.70
2018-12-20T15:50:17.367Z,4.50
2018-12-20T15:52:45.751Z,4.70
2018-12-20T15:55:14.017Z,4.80
2018-12-20T15:57:42.384Z,4.80
2018-12-20T16:00:10.828Z,4.80
2018-12-20T16:02:39.010Z,4.80
2018-12-20T16:05:07.389Z,4.60
2018-12-20T16:07:35.719Z,4.50
2018-12-20T16:10:05.884Z,4.80
2018-12-20T16:12:34.085Z,4.70
2018-12-20T16:15:02.463Z,4.60
2018-12-20T16:17:30.675Z,4.70
2018-12-20T16:19:59.091Z,4.60
2018-12-20T16:22:27.329Z,4.70
2018-12-20T16:24:55.530Z,4.60
2018-12-20T16:27:23.762Z,4.60
2018-12-20T16:29:52.114Z,4.30
2018-12-20T16:32:20.389Z,4.40
2018-12-20T16:34:48.839Z,4.50
2018-12-20T16:37:17.045Z,4.40
2018-12-20T16:39:45.244Z,4.30
2018-12-20T16:42:13.512Z,4.40
2018-12-20T16:44:41.785Z,4.30
2018-12-20T16:47:10.164Z,4.30
2018-12-20T16:49:38.480Z,4.40
2018-12-20T16:52:06.714Z,4.30
2018-12-20T16:54:35.071Z,4.40
2018-12-20T16:57:03.346Z,4.30
2018-12-20T16:59:31.549Z,4.20
2018-12-20T17:01:59.967Z,4.20
2018-12-20T17:04:28.181Z,4.10
2018-12-20T17:06:56.461Z,4.20
2018-12-20T17:09:24.700Z,4.20
2018-12-20T17:11:53.008Z,4.10
2018-12-20T17:14:21.294Z,4.10
2018-12-20T17:16:49.615Z,4.20
2018-12-20T17:19:22.034Z,4.30
2018-12-20T17:21:48.030Z,4.40
2018-12-20T17:24:16.423Z,4.30
2018-12-20T17:29:53.787Z,4.20
2018-12-20T17:32:23.365Z,4.30
2018-12-20T17:34:51.744Z,4.20
2018-12-20T17:37:19.951Z,4.10
2018-12-20T17:39:49.498Z,4.10
2018-12-20T17:42:17.797Z,3.70
2018-12-20T17:44:45.999Z,4.00
2018-12-20T17:47:14.213Z,4.10
2018-12-20T17:49:42.428Z,4.10
2018-12-20T17:52:10.797Z,4.10
2018-12-20T17:54:39.140Z,4.20
2018-12-20T17:57:07.350Z,4.10
2018-12-20T17:59:36.185Z,4.20
2018-12-20T18:02:04.615Z,4.10
2018-12-20T18:04:32.840Z,4.20
2018-12-20T18:07:01.043Z,4.10
2018-12-20T18:09:29.260Z,4.30
2018-12-20T18:11:57.492Z,4.40
2018-12-20T18:14:26.376Z,4.30
2018-12-20T18:16:55.185Z,4.30
2018-12-20T18:19:23.417Z,4.30
2018-12-20T18:21:51.708Z,4.30
2018-12-20T18:24:20.016Z,4.30
2018-12-20T18:26:48.217Z,4.20
2018-12-20T18:29:16.441Z,4.30
2018-12-20T18:31:44.906Z,4.00
2018-12-20T18:34:13.394Z,4.20
2018-12-20T18:36:41.730Z,4.20
2018-12-20T18:39:09.914Z,4.30
2018-12-20T18:41:38.353Z,4.30
2018-12-20T18:44:06.642Z,4.20
2018-12-20T18:46:34.838Z,4.20
2018-12-20T18:49:03.090Z,4.20
2018-12-20T18:51:31.329Z,4.10
2018-12-20T18:53:59.572Z,3.90
2018-12-20T18:56:27.776Z,4.00
2018-12-20T18:58:56.039Z,4.10
2018-12-20T19:01:24.302Z,4.00
2018-12-20T19:03:52.510Z,4.20
2018-12-20T19:06:20.779Z,4.10
2018-12-20T19:08:48.996Z,4.00
2018-12-20T19:11:17.168Z,4.10
2018-12-20T19:13:47.090Z,3.90
2018-12-20T19:16:15.376Z,3.90
2018-12-20T19:18:43.645Z,3.90
2018-12-20T19:21:11.984Z,3.70
2018-12-20T19:23:40.239Z,3.80
2018-12-20T19:26:08.553Z,3.90
2018-12-20T19:28:36.915Z,4.00
2018-12-20T19:31:05.220Z,4.00
2018-12-20T19:33:33.591Z,4.00
2018-12-20T19:36:01.793Z,3.90
2018-12-20T19:38:30.022Z,4.00
2018-12-20T19:40:58.303Z,4.00
2018-12-20T19:43:26.570Z,4.00
2018-12-20T19:45:54.763Z,4.00
2018-12-20T19:48:23.041Z,4.10
2018-12-20T19:50:51.254Z,4.10
2018-12-20T19:53:19.596Z,4.10
2018-12-20T19:55:47.835Z,4.10
2018-12-20T19:58:16.220Z,4.00
2018-12-20T20:00:44.491Z,4.20
2018-12-20T20:03:12.846Z,4.10
2018-12-20T20:05:41.092Z,4.10
2018-12-20T20:08:10.030Z,4.10
2018-12-20T20:10:38.238Z,4.00
2018-12-20T20:13:07.318Z,3.90
2018-12-20T20:15:35.527Z,4.10
2018-12-20T20:18:03.770Z,4.00
2018-12-20T20:20:32.132Z,4.00
2018-12-20T20:23:00.309Z,3.80
2018-12-20T20:25:28.683Z,3.80
2018-12-20T20:27:56.879Z,3.90
2018-12-20T20:30:25.132Z,3.80
2018-12-20T20:32:53.407Z,3.70
2018-12-20T20:35:21.619Z,3.90
2018-12-20T20:37:49.921Z,4.10
2018-12-20T20:40:18.233Z,4.00
2018-12-20T20:42:46.508Z,4.10
2018-12-20T20:45:14.709Z,4.10
2018-12-20T20:47:42.940Z,4.10
2018-12-20T20:50:11.126Z,4.20
2018-12-20T20:52:39.311Z,4.20
2018-12-20T20:55:08.150Z,4.20
2018-12-20T20:57:36.464Z,4.20
2018-12-20T21:00:09.285Z,3.90
2018-12-20T21:02:37.674Z,4.20
2018-12-20T21:05:07.468Z,4.20
2018-12-20T21:07:35.710Z,4.20
2018-12-20T21:10:06.804Z,4.10
2018-12-20T21:12:35.267Z,4.10
2018-12-20T21:15:03.604Z,4.20
2018-12-20T21:17:31.908Z,4.40
2018-12-20T21:20:00.108Z,4.40
2018-12-20T21:22:28.358Z,4.30
2018-12-20T21:24:56.597Z,4.20
2018-12-20T21:27:24.764Z,4.30
2018-12-20T21:29:53.017Z,4.30
2018-12-20T21:32:21.231Z,4.20
2018-12-20T21:34:49.448Z,4.30
2018-12-20T21:37:17.630Z,4.30
2018-12-20T21:39:45.833Z,4.30
2018-12-20T21:42:14.049Z,4.40
2018-12-20T21:44:42.256Z,4.50
2018-12-20T21:47:10.449Z,4.40
2018-12-20T21:49:38.655Z,4.40
2018-12-20T21:52:06.823Z,4.50
2018-12-20T21:54:35.054Z,4.50
2018-12-20T21:57:03.224Z,4.50
2018-12-20T21:59:31.397Z,4.30
2018-12-20T22:01:59.638Z,4.30
2018-12-20T22:04:27.808Z,4.40
2018-12-20T22:06:56.101Z,4.50
2018-12-20T22:09:24.300Z,4.60
2018-12-20T22:11:52.475Z,4.50
2018-12-20T22:14:20.649Z,4.60
2018-12-20T22:16:48.860Z,4.40
2018-12-20T22:19:17.034Z,4.50
2018-12-20T22:21:45.204Z,4.70
2018-12-20T22:24:13.413Z,4.60
2018-12-20T22:26:41.584Z,4.70
2018-12-20T22:29:09.758Z,4.60
2018-12-20T22:31:37.992Z,4.70
2018-12-20T22:34:06.175Z,4.70
2018-12-20T22:36:34.348Z,4.80
2018-12-20T22:39:02.575Z,4.80
2018-12-20T22:41:30.737Z,4.80
2018-12-20T22:43:58.951Z,4.80
2018-12-20T22:46:27.192Z,4.80
2018-12-20T22:48:55.408Z,4.90
2018-12-20T22:51:23.604Z,4.90
2018-12-20T22:53:51.840Z,4.80
2018-12-20T22:56:20.007Z,4.90
2018-12-20T22:58:48.177Z,4.90
2018-12-20T23:01:16.490Z,4.50
2018-12-20T23:03:44.696Z,4.60
2018-12-20T23:06:12.864Z,4.80
2018-12-20T23:08:41.074Z,4.70
2018-12-20T23:11:09.253Z,4.70
2018-12-20T23:13:37.424Z,4.60
2018-12-20T23:16:05.847Z,4.80
2018-12-20T23:18:34.027Z,4.90
2018-12-20T23:21:05.058Z,4.80
2018-12-20T23:23:32.485Z,4.90
2018-12-20T23:26:00.696Z,4.70
2018-12-20T23:28:28.868Z,4.80
2018-12-20T23:30:57.114Z,4.90
2018-12-20T23:33:25.294Z,4.80
2018-12-20T23:35:53.452Z,4.70
2018-12-20T23:38:21.655Z,4.80
2018-12-20T23:40:49.864Z,4.90
2018-12-20T23:43:18.135Z,5.00
2018-12-20T23:45:46.885Z,5.00
2018-12-20T23:48:15.092Z,4.90
2018-12-20T23:50:43.268Z,4.90
2018-12-20T23:53:11.514Z,4.90
2018-12-20T23:55:39.690Z,4.90
2018-12-20T23:58:07.899Z,4.90
